Time;durP1;ratioP1;P1;durP2;ratioP2;P2;SDS_P1;SDS_P2;PMS_P1;PMS_P2;Temp;Humidity;BMP_temperature;BMP_pressure;BME280_temperature;BME280_humidity;BME280_pressure;Samples;Min_cycle;Max_cycle;Signal;HPM_P1;HPM_P2
2023/03/25 00:00:58;;;;;;;17.75;12.73;;;;;;;10.08;100.00;98704.03;4967215;28;20117;-96
2023/03/25 00:03:27;;;;;;;19.05;13.68;;;;;;;9.95;100.00;98696.41;4970540;28;20047;-95
2023/03/25 00:05:54;;;;;;;21.88;13.82;;;;;;;9.94;100.00;98695.53;4971125;28;20061;-95
2023/03/25 00:08:24;;;;;;;20.80;12.70;;;;;;;9.89;100.00;98692.16;4971124;28;20051;-95
2023/03/25 00:10:52;;;;;;;19.30;13.15;;;;;;;9.92;100.00;98701.81;4971237;28;20043;-96
2023/03/25 00:13:20;;;;;;;18.40;12.52;;;;;;;9.86;100.00;98694.88;4971111;28;20135;-96
2023/03/25 00:15:48;;;;;;;20.42;13.05;;;;;;;9.82;100.00;98691.44;4970477;28;20142;-95
2023/03/25 00:18:16;;;;;;;19.25;12.50;;;;;;;9.80;100.00;98687.03;4971554;28;20045;-96
2023/03/25 00:20:48;;;;;;;17.95;12.32;;;;;;;9.80;100.00;98695.91;4971748;28;20509;-96
2023/03/25 00:23:14;;;;;;;18.58;12.52;;;;;;;9.74;100.00;98679.25;4970927;28;20047;-94
2023/03/25 00:25:40;;;;;;;20.00;13.07;;;;;;;9.76;100.00;98682.72;4970299;28;20124;-95
2023/03/25 00:28:09;;;;;;;18.55;12.90;;;;;;;9.78;100.00;98687.09;4971715;28;20102;-95
2023/03/25 00:30:38;;;;;;;18.88;12.30;;;;;;;9.77;100.00;98677.38;4971839;28;20043;-95
2023/03/25 00:33:12;;;;;;;19.20;12.57;;;;;;;9.80;100.00;98692.34;4971148;28;20054;-94
2023/03/25 00:35:43;;;;;;;19.67;13.38;;;;;;;9.78;100.00;98681.78;4972086;28;20061;-94
2023/03/25 00:38:09;;;;;;;20.20;13.02;;;;;;;9.86;100.00;98695.72;4970323;28;20050;-94
2023/03/25 00:40:35;;;;;;;22.50;13.45;;;;;;;9.97;100.00;98711.41;4970775;28;20063;-95
2023/03/25 00:43:04;;;;;;;21.67;13.13;;;;;;;9.88;100.00;98687.72;4970824;28;20117;-94
2023/03/25 00:45:33;;;;;;;22.10;14.70;;;;;;;10.11;100.00;98712.84;4970406;28;20047;-95
2023/03/25 00:47:59;;;;;;;22.08;13.93;;;;;;;10.16;100.00;98717.13;4969207;28;20047;-96
2023/03/25 00:50:26;;;;;;;19.92;13.52;;;;;;;10.07;100.00;98693.44;4969959;28;20046;-95
2023/03/25 00:52:53;;;;;;;21.40;14.20;;;;;;;9.98;100.00;98680.41;4970701;28;20074;-95
2023/03/25 00:55:20;;;;;;;23.17;14.07;;;;;;;9.96;100.00;98688.41;4971772;28;20055;-93
2023/03/25 00:57:49;;;;;;;27.38;15.82;;;;;;;10.04;100.00;98691.75;4970744;28;20175;-94
2023/03/25 01:00:19;;;;;;;;;;;;;;;10.22;100.00;98716.09;4971838;28;20046;-94
2023/03/25 01:02:52;;;;;;;24.50;13.48;;;;;;;9.96;100.00;98672.47;4970900;28;19922;-94
2023/03/25 01:05:20;;;;;;;23.42;13.95;;;;;;;10.10;100.00;98687.19;4970683;28;20066;-95
2023/03/25 01:07:48;;;;;;;24.77;14.32;;;;;;;9.96;100.00;98666.28;4970028;28;20066;-96
2023/03/25 01:10:17;;;;;;;23.77;14.33;;;;;;;9.95;100.00;98661.88;4970761;28;20452;-95
2023/03/25 01:12:43;;;;;;;23.33;14.57;;;;;;;9.93;100.00;98661.94;4970105;28;20050;-95
2023/03/25 01:15:14;;;;;;;22.70;14.73;;;;;;;9.94;100.00;98661.00;4968117;28;20046;-94
2023/03/25 01:17:43;;;;;;;24.08;14.80;;;;;;;10.07;100.00;98686.34;4970328;28;20046;-95
2023/03/25 01:20:12;;;;;;;24.02;14.70;;;;;;;9.95;100.00;98665.41;4969926;28;20058;-96
2023/03/25 01:22:39;;;;;;;24.17;14.73;;;;;;;10.11;100.00;98694.25;4969542;28;20189;-95
2023/03/25 01:25:11;;;;;;;26.23;15.45;;;;;;;10.08;100.00;98688.09;4969430;28;20053;-95
2023/03/25 01:27:38;;;;;;;25.23;15.38;;;;;;;9.87;100.00;98662.97;4970002;28;20074;-95
2023/03/25 01:30:06;;;;;;;26.65;16.05;;;;;;;9.86;100.00;98655.88;4968935;28;20050;-94
2023/03/25 01:32:32;;;;;;;23.88;15.48;;;;;;;9.94;100.00;98676.09;4969448;28;20042;-94
2023/03/25 01:34:58;;;;;;;26.48;15.85;;;;;;;9.84;100.00;98659.50;4969607;28;20047;-94
2023/03/25 01:37:32;;;;;;;26.92;16.10;;;;;;;9.79;100.00;98649.00;4969530;28;20039;-92
2023/03/25 01:40:04;;;;;;;25.83;15.23;;;;;;;9.72;100.00;98650.09;4969723;28;20495;-95
2023/03/25 01:42:31;;;;;;;27.95;16.10;;;;;;;9.69;100.00;98651.94;4968560;28;20043;-94
2023/03/25 01:45:26;;;;;;;27.65;16.40;;;;;;;9.82;100.00;98691.44;4967779;28;20481;-94
2023/03/25 01:48:00;;;;;;;27.30;15.75;;;;;;;9.78;100.00;98683.56;4925563;29;20052;-94
2023/03/25 01:50:28;;;;;;;24.38;15.20;;;;;;;9.46;100.00;98658.69;4910416;29;20048;-93
2023/03/25 01:52:57;;;;;;;33.58;15.73;;;;;;;9.41;100.00;98652.59;4910713;29;20051;-95
2023/03/25 01:55:26;;;;;;;24.75;15.35;;;;;;;9.32;100.00;98661.66;4908677;29;20049;-96
2023/03/25 01:58:00;;;;;;;28.92;15.50;;;;;;;9.21;100.00;98667.22;4923641;29;20434;-96
2023/03/25 02:00:27;;;;;;;26.50;15.35;;;;;;;9.30;100.00;98682.06;4911532;29;20076;-95
2023/03/25 02:02:58;;;;;;;31.13;16.63;;;;;;;9.18;100.00;98656.69;4912107;29;20048;-95
2023/03/25 02:05:31;;;;;;;25.00;14.90;;;;;;;9.21;100.00;98647.78;4913400;29;20052;-95
2023/03/25 02:08:02;;;;;;;24.58;14.45;;;;;;;9.38;100.00;98665.97;4912253;29;20048;-96
2023/03/25 02:10:28;;;;;;;28.83;16.83;;;;;;;9.22;100.00;98650.41;4928014;29;20121;-96
2023/03/25 02:13:00;;;;;;;;;;;;;;;9.42;100.00;98672.94;4913102;29;20052;-95
2023/03/25 02:15:31;;;;;;;24.17;14.07;;;;;;;9.36;100.00;98665.13;4913490;29;19923;-96
2023/03/25 02:18:23;;;;;;;26.40;16.60;;;;;;;9.26;100.00;98661.84;4912879;29;20545;-96
2023/03/25 02:21:26;;;;;;;33.95;17.80;;;;;;;9.20;100.00;98648.72;4912622;29;20052;-96
2023/03/25 02:24:15;;;;;;;29.95;16.77;;;;;;;9.24;100.00;98653.03;4950410;28;20050;-95
2023/03/25 02:26:58;;;;;;;;;;;;;;;9.46;100.00;98678.16;4970387;28;20047;-95
2023/03/25 02:29:48;;;;;;;27.73;16.30;;;;;;;9.29;100.00;98629.03;4970924;28;19953;-95
2023/03/25 02:32:36;;;;;;;30.35;16.55;;;;;;;9.37;100.00;98630.59;4970458;28;20047;-96
2023/03/25 02:35:30;;;;;;;33.63;18.25;;;;;;;9.71;100.00;98661.59;4969837;28;20046;-95
2023/03/25 02:38:17;;;;;;;32.50;18.17;;;;;;;9.61;100.00;98637.06;4967316;29;20065;-94
2023/03/25 02:40:50;;;;;;;29.42;16.80;;;;;;;9.78;100.00;98652.59;4951144;29;20063;-96
2023/03/25 02:43:26;;;;;;;34.75;18.00;;;;;;;9.74;100.00;98620.84;4954175;28;20043;-95
2023/03/25 02:45:57;;;;;;;30.13;16.85;;;;;;;9.77;100.00;98607.47;4969624;28;20047;-95
2023/03/25 02:48:36;;;;;;;27.90;16.63;;;;;;;9.85;100.00;98616.13;4968671;28;20133;-94
2023/03/25 02:51:13;;;;;;;27.37;17.03;;;;;;;9.86;100.00;98605.44;4968889;28;20043;-95
2023/03/25 02:53:47;;;;;;;31.65;17.80;;;;;;;9.97;100.00;98621.06;4968800;28;20437;-95
2023/03/25 02:56:21;;;;;;;30.30;17.67;;;;;;;9.99;100.00;98618.38;4969637;28;20050;-95
2023/03/25 02:58:50;;;;;;;27.65;16.08;;;;;;;9.93;100.00;98607.91;4969742;28;20047;-94
2023/03/25 03:01:15;;;;;;;;;;;;;;;10.19;100.00;98653.28;4968948;28;20140;-95
2023/03/25 03:03:44;;;;;;;27.90;16.05;;;;;;;9.98;100.00;98624.63;4970113;28;19923;-95
2023/03/25 03:06:17;;;;;;;29.38;16.35;;;;;;;10.14;100.00;98643.66;4969066;28;20500;-96
2023/03/25 03:09:12;;;;;;;26.63;16.23;;;;;;;10.22;100.00;98660.28;4970177;28;20168;-95
2023/03/25 03:11:46;;;;;;;27.52;14.95;;;;;;;10.04;100.00;98632.41;4969828;28;20043;-96
2023/03/25 03:14:30;;;;;;;24.20;14.60;;;;;;;10.10;100.00;98631.38;4970212;28;20074;-95
2023/03/25 03:17:06;;;;;;;26.65;15.13;;;;;;;10.11;100.00;98630.47;4969281;28;20077;-95
2023/03/25 03:19:45;;;;;;;25.60;15.73;;;;;;;10.11;100.00;98633.13;4969754;28;20045;-95
2023/03/25 03:22:34;;;;;;;27.60;16.65;;;;;;;10.07;100.00;98630.53;4969160;28;20073;-96
2023/03/25 03:25:12;;;;;;;24.55;15.38;;;;;;;10.24;100.00;98650.50;4969373;28;20110;-94
2023/03/25 03:27:51;;;;;;;27.70;16.03;;;;;;;10.11;100.00;98617.19;4969734;28;20050;-94
2023/03/25 03:30:26;;;;;;;26.65;15.57;;;;;;;10.15;100.00;98618.81;4969888;28;20054;-96
2023/03/25 03:33:01;;;;;;;25.98;15.27;;;;;;;10.10;100.00;98618.09;4950365;29;20047;-96
2023/03/25 03:35:33;;;;;;;26.35;14.63;;;;;;;10.13;100.00;98610.03;4965371;28;20102;-94
2023/03/25 03:38:08;;;;;;;27.20;16.20;;;;;;;10.13;100.00;98613.59;4971421;28;20057;-95
2023/03/25 03:40:42;;;;;;;27.23;15.77;;;;;;;10.32;100.00;98661.78;4988362;28;20047;-94
2023/03/25 03:43:15;;;;;;;25.38;15.25;;;;;;;10.10;100.00;98626.06;4972861;28;20153;-94
2023/03/25 03:45:47;;;;;;;25.27;16.17;;;;;;;10.24;100.00;98648.69;4972832;28;20049;-95
2023/03/25 03:48:24;;;;;;;27.10;15.95;;;;;;;10.02;100.00;98621.84;4972660;28;20393;-95
2023/03/25 03:50:57;;;;;;;26.85;15.95;;;;;;;10.01;100.00;98604.16;4972132;28;20106;-96
2023/03/25 03:53:28;;;;;;;27.05;16.05;;;;;;;10.15;100.00;98621.47;4972313;28;20070;-96
2023/03/25 03:56:02;;;;;;;27.52;15.68;;;;;;;10.04;100.00;98604.06;4971729;28;20070;-95
2023/03/25 03:58:32;;;;;;;24.73;15.07;;;;;;;10.08;100.00;98608.41;4972974;28;20054;-94
2023/03/25 04:01:08;;;;;;;26.33;16.25;;;;;;;10.03;100.00;98604.97;4972171;28;20043;-95
2023/03/25 04:03:42;;;;;;;27.13;16.50;;;;;;;10.01;100.00;98609.47;4970218;28;20102;-95
2023/03/25 04:06:15;;;;;;;27.40;16.10;;;;;;;10.03;100.00;98604.97;4969440;28;20081;-94
2023/03/25 04:08:51;;;;;;;28.55;16.10;;;;;;;10.11;100.00;98612.75;4970121;28;20054;-95
2023/03/25 04:11:24;;;;;;;25.48;15.68;;;;;;;10.19;100.00;98625.81;4970111;28;20508;-94
2023/03/25 04:13:55;;;;;;;26.40;15.43;;;;;;;10.10;100.00;98618.97;4969215;28;20098;-95
2023/03/25 04:16:23;;;;;;;25.38;14.88;;;;;;;10.13;100.00;98628.63;4969978;28;20113;-94
2023/03/25 04:18:52;;;;;;;28.35;16.27;;;;;;;10.01;100.00;98614.78;4969908;28;20105;-95
2023/03/25 04:21:18;;;;;;;28.83;16.13;;;;;;;9.99;100.00;98619.25;4969795;28;20096;-96
2023/03/25 04:23:46;;;;;;;27.75;15.88;;;;;;;9.96;100.00;98621.13;4970041;28;20047;-95
2023/03/25 04:26:14;;;;;;;33.20;15.77;;;;;;;9.97;100.00;98626.38;4969030;28;20047;-94
2023/03/25 04:28:43;;;;;;;27.02;15.82;;;;;;;9.98;100.00;98624.63;4970390;28;20081;-95
2023/03/25 04:31:14;;;;;;;;;;;;;;;10.26;100.00;98675.22;4971285;28;20078;-94
2023/03/25 04:33:40;;;;;;;24.77;14.07;;;;;;;10.24;100.00;98672.59;4970742;28;19930;-94
2023/03/25 04:36:10;;;;;;;26.65;15.70;;;;;;;10.20;100.00;98670.09;4969815;28;20050;-94
2023/03/25 04:38:36;;;;;;;24.48;15.10;;;;;;;10.02;100.00;98639.56;4969781;28;20138;-95
2023/03/25 04:41:05;;;;;;;25.65;14.95;;;;;;;10.11;100.00;98663.22;4970762;28;20047;-95
2023/03/25 04:43:31;;;;;;;;;;;;;;;10.33;100.00;98697.22;4969639;28;20047;-95
2023/03/25 04:46:02;;;;;;;27.33;15.05;;;;;;;10.15;100.00;98666.66;4969213;28;19929;-94
2023/03/25 04:48:40;;;;;;;28.17;16.00;;;;;;;10.22;100.00;98689.50;4968998;28;20051;-96
2023/03/25 04:51:09;;;;;;;25.58;14.77;;;;;;;10.13;100.00;98673.78;4969890;28;20053;-95
2023/03/25 04:53:37;;;;;;;26.38;14.45;;;;;;;10.08;100.00;98672.16;4969253;28;20106;-95
2023/03/25 04:56:05;;;;;;;25.23;15.00;;;;;;;10.11;100.00;98673.84;4969788;28;20077;-96
2023/03/25 04:58:35;;;;;;;25.67;14.32;;;;;;;10.22;100.00;98700.16;4969018;28;20097;-96
2023/03/25 05:01:04;;;;;;;27.33;15.60;;;;;;;10.09;100.00;98686.31;4969829;28;20046;-94
2023/03/25 05:03:34;;;;;;;26.98;14.95;;;;;;;10.10;100.00;98693.34;4970375;28;20082;-94
2023/03/25 05:06:00;;;;;;;24.20;14.00;;;;;;;10.10;100.00;98695.16;4969651;28;20082;-95
2023/03/25 05:08:30;;;;;;;27.80;15.48;;;;;;;10.12;100.00;98701.28;4968482;28;20050;-95
2023/03/25 05:10:56;;;;;;;27.08;14.88;;;;;;;10.11;100.00;98694.25;4968739;28;20047;-95
2023/03/25 05:13:28;;;;;;;23.85;15.00;;;;;;;10.17;100.00;98705.59;4986613;28;20074;-95
2023/03/25 05:15:55;;;;;;;24.55;14.35;;;;;;;10.28;100.00;98721.25;4969451;28;20054;-95
2023/03/25 05:18:22;;;;;;;23.50;14.30;;;;;;;10.33;100.00;98724.69;4969673;28;20058;-94
2023/03/25 05:20:49;;;;;;;23.35;13.20;;;;;;;10.23;100.00;98704.53;4969673;28;20532;-93
2023/03/25 05:23:17;;;;;;;24.90;14.48;;;;;;;10.30;100.00;98713.25;4969476;28;20051;-94
2023/03/25 05:25:47;;;;;;;26.42;14.70;;;;;;;10.28;100.00;98698.19;4969844;28;20046;-95
2023/03/25 05:28:16;;;;;;;24.02;14.75;;;;;;;10.32;100.00;98703.44;4969449;28;20051;-96
2023/03/25 05:30:44;;;;;;;26.02;14.35;;;;;;;10.35;100.00;98690.97;4968521;28;20083;-94
2023/03/25 05:33:14;;;;;;;21.73;14.05;;;;;;;10.37;100.00;98697.09;4968177;28;20427;-95
2023/03/25 05:35:47;;;;;;;23.27;13.95;;;;;;;10.44;100.00;98700.47;4969539;28;20382;-95
2023/03/25 05:38:17;;;;;;;26.73;15.43;;;;;;;10.41;100.00;98704.09;4969430;28;20057;-95
2023/03/25 05:40:45;;;;;;;24.85;14.43;;;;;;;10.44;100.00;98717.28;4950457;29;20086;-94
2023/03/25 05:43:13;;;;;;;24.67;14.68;;;;;;;10.42;100.00;98728.88;4950860;29;20051;-95
2023/03/25 05:45:41;;;;;;;26.80;15.10;;;;;;;10.41;100.00;98732.44;4949750;29;20071;-95
2023/03/25 05:48:08;;;;;;;26.83;14.80;;;;;;;10.50;100.00;98748.16;4949773;29;20146;-95
2023/03/25 05:50:36;;;;;;;26.98;14.85;;;;;;;10.40;100.00;98722.72;4948732;29;20051;-95
2023/03/25 05:53:04;;;;;;;26.40;16.38;;;;;;;10.57;100.00;98741.75;4950626;29;20055;-93
2023/03/25 05:55:31;;;;;;;27.35;15.82;;;;;;;10.54;100.00;98720.56;4949958;29;20493;-95
2023/03/25 05:57:57;;;;;;;23.13;14.50;;;;;;;10.69;100.00;98727.22;4949198;29;20094;-95
2023/03/25 06:00:23;;;;;;;26.80;15.18;;;;;;;10.74;100.00;98717.34;4964373;28;20525;-95
2023/03/25 06:02:49;;;;;;;25.75;14.50;;;;;;;10.66;100.00;98698.94;4970165;28;20051;-95
2023/03/25 06:05:22;;;;;;;25.63;14.18;;;;;;;10.72;100.00;98689.91;4969990;28;20047;-94
2023/03/25 06:07:54;;;;;;;23.73;14.32;;;;;;;10.79;100.00;98698.59;4969550;28;20055;-96
2023/03/25 06:10:24;;;;;;;25.38;14.88;;;;;;;10.71;100.00;98688.16;4969467;28;20046;-95
2023/03/25 06:12:52;;;;;;;23.73;14.73;;;;;;;10.61;100.00;98678.72;4969391;28;20058;-94
2023/03/25 06:15:27;;;;;;;26.60;15.63;;;;;;;10.52;100.00;98679.84;4968713;28;20113;-93
2023/03/25 06:17:55;;;;;;;27.52;15.73;;;;;;;10.50;100.00;98692.31;4971642;28;20043;-94
2023/03/25 06:20:21;;;;;;;27.13;14.52;;;;;;;10.38;100.00;98663.41;4967352;28;20073;-95
2023/03/25 06:22:52;;;;;;;25.55;14.88;;;;;;;10.54;100.00;98679.78;4967903;28;20102;-95
2023/03/25 06:25:20;;;;;;;26.70;15.20;;;;;;;10.52;100.00;98655.94;4970922;28;20149;-96
2023/03/25 06:27:50;;;;;;;25.50;14.70;;;;;;;10.55;100.00;98653.16;4971139;28;20381;-96
2023/03/25 06:30:22;;;;;;;24.90;14.50;;;;;;;10.73;100.00;98654.41;4969319;28;20071;-95
2023/03/25 06:32:51;;;;;;;27.83;15.52;;;;;;;11.03;100.00;98689.88;4967597;28;20045;-96
2023/03/25 06:35:20;;;;;;;24.80;14.47;;;;;;;11.00;100.00;98665.16;4969431;28;20050;-95
2023/03/25 06:37:46;;;;;;;;;;;;;;;11.41;100.00;98711.78;4969957;28;20074;-95
2023/03/25 06:40:16;;;;;;;27.02;15.48;;;;;;;11.28;100.00;98663.38;4969071;28;19961;-95
2023/03/25 06:42:42;;;;;;;25.15;14.20;;;;;;;11.40;100.00;98703.84;4970203;28;20053;-95
2023/03/25 06:45:12;;;;;;;23.35;13.95;;;;;;;11.42;100.00;98712.66;4968996;28;20098;-96
2023/03/25 06:47:39;;;;;;;24.20;15.75;;;;;;;11.29;100.00;98680.22;4969571;28;20047;-95
2023/03/25 06:50:07;;;;;;;24.85;14.95;;;;;;;11.41;100.00;98676.31;4969848;28;20054;-96
2023/03/25 06:52:34;;;;;;;26.30;15.07;;;;;;;11.84;100.00;98715.75;4970848;28;20074;-95
2023/03/25 06:55:00;;;;;;;26.75;13.52;;;;;;;11.85;100.00;98677.50;4969628;28;20054;-95
2023/03/25 06:57:29;;;;;;;25.88;13.48;;;;;;;12.11;100.00;98681.09;4969443;28;20047;-95
2023/03/25 06:59:57;;;;;;;18.87;12.20;;;;;;;11.99;100.00;98660.19;4968467;28;20027;-96
2023/03/25 07:02:25;;;;;;;20.92;12.20;;;;;;;12.13;100.00;98674.78;4967522;28;20039;-96
2023/03/25 07:04:54;;;;;;;17.65;11.73;;;;;;;11.96;100.00;98658.50;4967489;28;20042;-94
2023/03/25 07:07:20;;;;;;;17.58;11.75;;;;;;;12.05;100.00;98668.84;4966909;28;20054;-94
2023/03/25 07:09:54;;;;;;;18.60;11.77;;;;;;;12.15;100.00;98664.09;4965996;28;20050;-94
2023/03/25 07:12:20;;;;;;;18.50;11.02;;;;;;;12.59;100.00;98693.63;4964126;28;20046;-94
2023/03/25 07:14:54;;;;;;;18.13;11.88;;;;;;;12.65;100.00;98671.19;4971510;28;20501;-95
2023/03/25 07:17:21;;;;;;;17.27;10.60;;;;;;;12.59;100.00;98658.06;4972367;28;20074;-94
2023/03/25 07:19:50;;;;;;;17.00;11.38;;;;;;;12.70;100.00;98710.09;4972856;28;20050;-93
2023/03/25 07:22:16;;;;;;;;;;;;;;;12.88;100.00;98708.56;4971906;28;20043;-95
2023/03/25 07:24:46;;;;;;;17.55;11.32;;;;;;;12.87;99.79;98681.91;4973345;28;19928;-93
2023/03/25 07:27:13;;;;;;;18.02;11.27;;;;;;;12.76;98.18;98684.13;4974185;28;20043;-94
2023/03/25 07:29:45;;;;;;;17.10;10.85;;;;;;;12.89;98.64;98680.06;4975073;28;20050;-95
2023/03/25 07:32:11;;;;;;;15.75;10.75;;;;;;;13.10;96.66;98673.91;4972894;28;20042;-94
2023/03/25 07:34:38;;;;;;;16.80;10.38;;;;;;;13.45;95.93;98702.88;4974045;28;20050;-96
2023/03/25 07:37:15;;;;;;;18.07;10.93;;;;;;;13.43;93.66;98696.72;4972875;28;20050;-96
2023/03/25 07:39:44;;;;;;;15.45;9.85;;;;;;;13.15;95.72;98684.41;4975508;28;20047;-95
2023/03/25 07:42:10;;;;;;;16.52;10.45;;;;;;;13.31;95.25;98677.53;4974051;28;20034;-94
2023/03/25 07:44:36;;;;;;;18.25;10.70;;;;;;;13.62;94.47;98681.69;4974177;28;20509;-94
2023/03/25 07:47:05;;;;;;;15.75;11.18;;;;;;;13.40;93.62;98680.78;4974366;28;20085;-95
2023/03/25 07:49:35;;;;;;;18.35;10.63;;;;;;;13.74;92.45;98678.47;4974584;28;20531;-95
2023/03/25 07:52:01;;;;;;;15.27;10.52;;;;;;;14.00;91.42;98665.84;4974482;28;20122;-95
2023/03/25 07:54:29;;;;;;;15.90;10.07;;;;;;;13.96;91.11;98680.25;4974795;28;20508;-96
2023/03/25 07:56:56;;;;;;;18.98;11.38;;;;;;;14.03;92.17;98713.84;4974491;28;20047;-95
2023/03/25 07:59:27;;;;;;;15.25;9.95;;;;;;;13.66;92.23;98667.25;4974180;28;20058;-96
2023/03/25 08:01:54;;;;;;;15.57;10.32;;;;;;;13.54;92.97;98681.13;4975228;28;20591;-94
2023/03/25 08:04:20;;;;;;;17.65;10.85;;;;;;;13.56;93.63;98677.44;4973990;28;20058;-95
2023/03/25 08:06:49;;;;;;;15.20;9.63;;;;;;;13.96;91.47;98657.06;4975139;28;20062;-95
2023/03/25 08:09:16;;;;;;;14.60;9.82;;;;;;;13.85;89.11;98662.00;4975453;28;20043;-96
2023/03/25 08:11:44;;;;;;;16.08;9.60;;;;;;;14.00;88.45;98659.63;4975117;28;20043;-96
2023/03/25 08:14:11;;;;;;;13.52;8.30;;;;;;;14.20;86.66;98661.44;4975043;28;20118;-94
2023/03/25 08:16:41;;;;;;;14.90;9.35;;;;;;;14.25;86.75;98671.00;4975588;28;20047;-95
2023/03/25 08:19:10;;;;;;;13.90;8.82;;;;;;;14.53;84.17;98664.41;4974892;28;20046;-95
2023/03/25 08:21:40;;;;;;;13.93;9.25;;;;;;;14.51;85.15;98661.81;4973964;28;20042;-95
2023/03/25 08:24:06;;;;;;;14.70;8.40;;;;;;;14.66;83.37;98667.44;4973944;28;20046;-95
2023/03/25 08:26:33;;;;;;;17.77;8.15;;;;;;;14.73;83.63;98676.94;4974253;28;20042;-96
2023/03/25 08:29:06;;;;;;;14.60;8.40;;;;;;;15.05;82.24;98667.44;4973623;28;20047;-95
2023/03/25 08:31:37;;;;;;;11.32;7.40;;;;;;;15.35;79.91;98662.44;4971292;28;20046;-96
2023/03/25 08:34:04;;;;;;;12.10;7.70;;;;;;;15.60;77.89;98675.47;4972637;28;20054;-94
2023/03/25 08:36:31;;;;;;;13.25;8.05;;;;;;;15.70;79.79;98670.56;4965782;29;20097;-94
2023/03/25 08:39:06;;;;;;;13.40;9.00;;;;;;;15.62;78.70;98659.34;4953327;28;20055;-95
2023/03/25 08:41:32;;;;;;;16.20;9.10;;;;;;;15.69;78.54;98646.50;4954540;29;20047;-93
2023/03/25 08:43:59;;;;;;;16.10;10.27;;;;;;;15.28;80.53;98647.56;4954299;29;20047;-95
2023/03/25 08:46:33;;;;;;;13.68;8.55;;;;;;;15.44;80.22;98677.19;4954670;29;20047;-95
2023/03/25 08:49:00;;;;;;;14.50;8.68;;;;;;;14.85;82.63;98654.94;4954794;29;20062;-95
2023/03/25 08:51:26;;;;;;;13.38;8.75;;;;;;;15.14;81.93;98677.72;4953802;29;20114;-93
2023/03/25 08:54:23;;;;;;;12.48;7.65;;;;;;;15.39;81.13;98671.16;4959540;28;20043;-95
2023/03/25 08:56:51;;;;;;;12.18;7.57;;;;;;;15.13;80.47;98626.88;4972737;28;20566;-94
2023/03/25 08:59:18;;;;;;;13.52;8.43;;;;;;;15.11;80.66;98621.59;4973260;28;20043;-95
2023/03/25 09:01:47;;;;;;;13.13;9.52;;;;;;;14.85;80.72;98621.97;4973236;28;20054;-94
2023/03/25 09:04:16;;;;;;;15.48;9.68;;;;;;;14.68;83.26;98645.03;4971862;28;20046;-94
2023/03/25 09:06:45;;;;;;;11.00;6.88;;;;;;;14.53;82.35;98622.50;4972907;28;20078;-94
2023/03/25 09:09:11;;;;;;;16.67;8.23;;;;;;;14.53;82.82;98622.50;4973062;28;20055;-95
2023/03/25 09:11:40;;;;;;;9.85;6.57;;;;;;;14.96;81.92;98628.56;4955236;29;20551;-95
2023/03/25 09:14:07;;;;;;;9.82;6.70;;;;;;;14.97;81.03;98627.63;4952819;29;20080;-94
2023/03/25 09:16:34;;;;;;;10.77;6.03;;;;;;;15.15;79.84;98635.72;4953063;29;20075;-94
2023/03/25 09:19:02;;;;;;;12.77;7.53;;;;;;;15.26;79.05;98637.88;4970239;28;20051;-95
2023/03/25 09:21:32;;;;;;;17.98;9.02;;;;;;;16.09;77.19;98628.41;4972726;28;20461;-95
2023/03/25 09:23:58;;;;;;;12.35;7.32;;;;;;;16.25;74.19;98658.88;4972384;28;20047;-95
2023/03/25 09:26:27;;;;;;;17.73;11.40;;;;;;;16.15;73.95;98644.19;4972230;28;20481;-95
2023/03/25 09:28:55;;;;;;;17.40;9.45;;;;;;;16.50;73.24;98639.63;4972649;28;20139;-95
2023/03/25 09:31:21;;;;;;;13.68;9.35;;;;;;;16.51;73.28;98635.16;4972184;28;20051;-94
2023/03/25 09:33:50;;;;;;;13.45;6.95;;;;;;;16.64;71.24;98646.97;4972402;28;20074;-95
2023/03/25 09:36:26;;;;;;;17.15;11.18;;;;;;;16.49;71.99;98675.50;4971777;28;20114;-93
2023/03/25 09:38:52;;;;;;;13.45;7.88;;;;;;;16.42;72.22;98664.22;4972382;28;20074;-94
2023/03/25 09:41:53;;;;;;;14.85;9.45;;;;;;;16.79;71.51;98678.38;4971579;28;20046;-95
2023/03/25 09:44:25;;;;;;;15.63;9.88;;;;;;;16.69;72.05;98644.88;4972841;28;20051;-96
2023/03/25 09:46:51;;;;;;;25.13;17.10;;;;;;;16.96;70.12;98647.06;4969207;28;20400;-95
2023/03/25 09:49:24;;;;;;;15.68;10.30;;;;;;;16.62;70.74;98627.38;4971526;28;20081;-95
2023/03/25 09:51:58;;;;;;;12.73;7.35;;;;;;;16.85;70.85;98623.50;4969091;28;20050;-94
2023/03/25 09:54:43;;;;;;;12.10;7.20;;;;;;;17.09;69.73;98625.75;4967367;28;20067;-95
2023/03/25 09:57:19;;;;;;;10.82;6.93;;;;;;;17.56;68.17;98622.19;4965491;28;20082;-95
2023/03/25 09:59:55;;;;;;;12.38;6.22;;;;;;;17.40;66.79;98611.47;4964997;28;20046;-96
2023/03/25 10:02:32;;;;;;;9.55;6.38;;;;;;;17.29;66.65;98601.31;4966334;28;20480;-95
2023/03/25 10:05:24;;;;;;;8.63;6.07;;;;;;;17.18;65.70;98623.44;4967122;28;20051;-96
2023/03/25 10:08:12;;;;;;;20.10;13.75;;;;;;;17.72;64.71;98620.34;4964914;28;20073;-95
2023/03/25 10:10:50;;;;;;;10.57;6.88;;;;;;;18.41;62.36;98628.81;4967858;28;20047;-95
2023/03/25 10:13:26;;;;;;;9.27;5.35;;;;;;;18.72;59.62;98635.88;4966910;29;20051;-94
2023/03/25 10:16:06;;;;;;;10.02;5.97;;;;;;;18.80;55.87;98598.56;4963203;28;20047;-96
2023/03/25 10:18:57;;;;;;;7.57;4.65;;;;;;;18.29;55.39;98592.75;4972830;28;20051;-96
2023/03/25 10:21:36;;;;;;;8.18;4.50;;;;;;;17.67;55.01;98587.47;4972956;28;20043;-96
2023/03/25 10:24:15;;;;;;;8.15;4.90;;;;;;;18.10;55.44;98601.06;4967416;28;20484;-96
2023/03/25 10:26:46;;;;;;;7.43;4.40;;;;;;;18.34;53.51;98595.16;4967120;28;20070;-96
2023/03/25 10:29:26;;;;;;;6.63;4.80;;;;;;;18.19;54.34;98603.19;4967779;28;20049;-95
2023/03/25 10:31:57;;;;;;;8.50;4.40;;;;;;;17.99;52.97;98601.72;4967988;28;20070;-96
2023/03/25 10:34:28;;;;;;;6.75;4.53;;;;;;;17.99;54.84;98590.94;4967427;28;20053;-96
2023/03/25 10:36:59;;;;;;;8.40;4.88;;;;;;;17.90;53.89;98612.19;4968627;28;20050;-96
2023/03/25 10:39:33;;;;;;;10.43;4.50;;;;;;;17.76;55.05;98586.94;4969671;28;20386;-96
2023/03/25 10:42:10;;;;;;;10.55;5.03;;;;;;;17.58;55.80;98601.44;4966287;28;20049;-96
2023/03/25 10:44:36;;;;;;;10.18;4.97;;;;;;;17.28;56.17;98594.19;4968219;28;20039;-96
2023/03/25 10:47:35;;;;;;;8.95;4.68;;;;;;;17.90;55.64;98582.59;4965365;28;20058;-96
2023/03/25 10:50:15;;;;;;;8.02;5.05;;;;;;;18.34;55.35;98592.47;4967283;28;20362;-96
2023/03/25 10:52:50;;;;;;;5.97;4.75;;;;;;;18.86;52.93;98594.59;4969015;28;20046;-96
2023/03/25 10:55:31;;;;;;;7.55;4.93;;;;;;;19.17;53.49;98595.31;4969337;28;20496;-95
2023/03/25 10:58:04;;;;;;;9.40;5.40;;;;;;;18.18;54.64;98587.16;4971082;28;20145;-96
2023/03/25 11:00:31;;;;;;;8.10;5.15;;;;;;;18.24;54.11;98611.00;4966263;28;20058;-96
2023/03/25 11:02:57;;;;;;;11.80;5.07;;;;;;;18.63;54.35;98582.59;4963548;28;20380;-96
2023/03/25 11:05:34;;;;;;;7.88;4.60;;;;;;;18.59;51.10;98573.81;4969548;28;20046;-95
2023/03/25 11:12:54;;;;;;;9.55;5.22;;;;;;;19.05;52.18;98589.75;4851548;29;20082;-96
2023/03/25 11:15:23;;;;;;;6.97;4.38;;;;;;;19.43;48.97;98559.44;4836734;29;20046;-95
2023/03/25 11:18:04;;;;;;;10.63;5.10;;;;;;;19.17;47.32;98558.47;4840328;29;20057;-96
2023/03/25 11:20:37;;;;;;;9.02;4.10;;;;;;;18.82;47.11;98558.03;4838889;29;20109;-96
2023/03/25 11:23:06;;;;;;;7.63;4.40;;;;;;;19.27;46.65;98574.88;4835223;29;20111;-95
2023/03/25 11:25:40;;;;;;;6.22;3.75;;;;;;;19.59;44.24;98564.66;4862187;29;20049;-94
2023/03/25 11:28:15;;;;;;;6.07;3.65;;;;;;;19.25;42.67;98550.72;4868766;29;20141;-94
2023/03/25 11:31:08;;;;;;;6.28;3.65;;;;;;;19.27;43.55;98545.25;4852343;29;20049;-95
2023/03/25 11:33:37;;;;;;;6.07;3.50;;;;;;;19.13;41.79;98564.13;4852274;29;20061;-96
2023/03/25 11:36:12;;;;;;;7.35;3.83;;;;;;;19.00;43.28;98547.94;4852680;29;20041;-95
2023/03/25 11:38:39;;;;;;;7.45;3.92;;;;;;;18.59;43.83;98554.97;4853239;29;20045;-93
2023/03/25 11:41:06;;;;;;;10.52;3.88;;;;;;;18.64;45.23;98550.16;4881833;28;20089;-95
2023/03/25 11:43:37;;;;;;;9.35;4.63;;;;;;;18.81;43.59;98548.25;4967162;28;20046;-95